sensor_id;sensor_type;location;lat;lon;timestamp;temperature;humidity
12885;DHT22;6510;51.362;7.370;2023-08-07T00:00:27;11.80;99.90
12885;DHT22;6510;51.362;7.370;2023-08-07T00:02:53;11.80;99.90
12885;DHT22;6510;51.362;7.370;2023-08-07T00:05:19;11.80;99.90
12885;DHT22;6510;51.362;7.370;2023-08-07T00:07:44;11.80;99.90
12885;DHT22;6510;51.362;7.370;2023-08-07T00:10:10;11.80;99.90
12885;DHT22;6510;51.362;7.370;2023-08-07T00:12:36;11.80;99.90
12885;DHT22;6510;51.362;7.370;2023-08-07T00:15:02;11.80;99.90
12885;DHT22;6510;51.362;7.370;2023-08-07T00:17:28;11.80;99.90
12885;DHT22;6510;51.362;7.370;2023-08-07T00:19:54;11.80;99.90
12885;DHT22;6510;51.362;7.370;2023-08-07T00:22:20;11.80;99.90
12885;DHT22;6510;51.362;7.370;2023-08-07T00:24:45;11.90;99.90
12885;DHT22;6510;51.362;7.370;2023-08-07T00:27:11;11.90;99.90
12885;DHT22;6510;51.362;7.370;2023-08-07T00:29:38;11.80;99.90
12885;DHT22;6510;51.362;7.370;2023-08-07T00:32:04;11.80;99.90
12885;DHT22;6510;51.362;7.370;2023-08-07T00:34:30;11.80;99.90
12885;DHT22;6510;51.362;7.370;2023-08-07T00:36:58;11.90;99.90
12885;DHT22;6510;51.362;7.370;2023-08-07T00:39:24;11.90;99.90
12885;DHT22;6510;51.362;7.370;2023-08-07T00:41:49;11.90;99.90
12885;DHT22;6510;51.362;7.370;2023-08-07T00:44:15;11.90;99.90
12885;DHT22;6510;51.362;7.370;2023-08-07T00:46:41;11.90;99.90
12885;DHT22;6510;51.362;7.370;2023-08-07T00:49:10;11.90;99.90
12885;DHT22;6510;51.362;7.370;2023-08-07T00:51:37;11.90;99.90
12885;DHT22;6510;51.362;7.370;2023-08-07T00:54:04;11.90;99.90
12885;DHT22;6510;51.362;7.370;2023-08-07T00:56:30;11.90;99.90
12885;DHT22;6510;51.362;7.370;2023-08-07T00:59:00;12.00;99.90
12885;DHT22;6510;51.362;7.370;2023-08-07T01:01:26;11.90;99.90
12885;DHT22;6510;51.362;7.370;2023-08-07T01:03:52;11.90;99.90
12885;DHT22;6510;51.362;7.370;2023-08-07T01:06:18;11.90;99.90
12885;DHT22;6510;51.362;7.370;2023-08-07T01:08:44;11.90;99.90
12885;DHT22;6510;51.362;7.370;2023-08-07T01:17:11;11.90;99.90
12885;DHT22;6510;51.362;7.370;2023-08-07T01:19:38;11.90;99.90
12885;DHT22;6510;51.362;7.370;2023-08-07T01:22:09;11.90;99.90
12885;DHT22;6510;51.362;7.370;2023-08-07T01:24:36;11.90;99.90
12885;DHT22;6510;51.362;7.370;2023-08-07T01:35:33;11.80;99.90
12885;DHT22;6510;51.362;7.370;2023-08-07T01:38:00;11.90;99.90
12885;DHT22;6510;51.362;7.370;2023-08-07T01:40:28;11.80;99.90
12885;DHT22;6510;51.362;7.370;2023-08-07T01:42:54;11.90;99.90
12885;DHT22;6510;51.362;7.370;2023-08-07T01:45:24;11.80;99.90
12885;DHT22;6510;51.362;7.370;2023-08-07T01:47:50;11.80;99.90
12885;DHT22;6510;51.362;7.370;2023-08-07T01:50:15;11.80;99.90
12885;DHT22;6510;51.362;7.370;2023-08-07T01:52:41;11.70;99.90
12885;DHT22;6510;51.362;7.370;2023-08-07T01:55:09;11.80;99.90
12885;DHT22;6510;51.362;7.370;2023-08-07T01:57:35;11.80;99.90
12885;DHT22;6510;51.362;7.370;2023-08-07T02:00:00;11.80;99.90
12885;DHT22;6510;51.362;7.370;2023-08-07T02:02:26;11.80;99.90
12885;DHT22;6510;51.362;7.370;2023-08-07T02:04:51;11.80;99.90
12885;DHT22;6510;51.362;7.370;2023-08-07T02:07:17;11.80;99.90
12885;DHT22;6510;51.362;7.370;2023-08-07T02:09:42;11.70;99.90
12885;DHT22;6510;51.362;7.370;2023-08-07T02:12:08;11.70;99.90
12885;DHT22;6510;51.362;7.370;2023-08-07T02:14:34;11.70;99.90
12885;DHT22;6510;51.362;7.370;2023-08-07T02:16:59;11.70;99.90
12885;DHT22;6510;51.362;7.370;2023-08-07T02:19:25;11.70;99.90
12885;DHT22;6510;51.362;7.370;2023-08-07T02:21:50;11.70;99.90
12885;DHT22;6510;51.362;7.370;2023-08-07T02:24:16;11.70;99.90
12885;DHT22;6510;51.362;7.370;2023-08-07T02:26:43;11.80;99.90
12885;DHT22;6510;51.362;7.370;2023-08-07T02:29:09;11.80;99.90
12885;DHT22;6510;51.362;7.370;2023-08-07T02:31:34;11.80;99.90
12885;DHT22;6510;51.362;7.370;2023-08-07T02:34:00;11.70;99.90
12885;DHT22;6510;51.362;7.370;2023-08-07T02:36:25;11.70;99.90
12885;DHT22;6510;51.362;7.370;2023-08-07T02:38:53;11.70;99.90
12885;DHT22;6510;51.362;7.370;2023-08-07T02:41:19;11.70;99.90
12885;DHT22;6510;51.362;7.370;2023-08-07T02:43:44;11.70;99.90
12885;DHT22;6510;51.362;7.370;2023-08-07T02:46:10;11.70;99.90
12885;DHT22;6510;51.362;7.370;2023-08-07T02:48:35;11.70;99.90
12885;DHT22;6510;51.362;7.370;2023-08-07T02:51:01;11.70;99.90
12885;DHT22;6510;51.362;7.370;2023-08-07T02:53:26;11.70;99.90
12885;DHT22;6510;51.362;7.370;2023-08-07T02:55:52;11.70;99.90
12885;DHT22;6510;51.362;7.370;2023-08-07T02:58:18;11.70;99.90
12885;DHT22;6510;51.362;7.370;2023-08-07T03:00:43;11.70;99.90
12885;DHT22;6510;51.362;7.370;2023-08-07T03:03:09;11.70;99.90
12885;DHT22;6510;51.362;7.370;2023-08-07T03:05:34;11.70;99.90
12885;DHT22;6510;51.362;7.370;2023-08-07T03:08:00;11.70;99.90
12885;DHT22;6510;51.362;7.370;2023-08-07T03:10:26;11.70;99.90
12885;DHT22;6510;51.362;7.370;2023-08-07T03:12:51;11.70;99.90
12885;DHT22;6510;51.362;7.370;2023-08-07T03:15:17;11.80;99.90
12885;DHT22;6510;51.362;7.370;2023-08-07T03:17:43;11.80;99.90
12885;DHT22;6510;51.362;7.370;2023-08-07T03:20:09;11.70;99.90
12885;DHT22;6510;51.362;7.370;2023-08-07T03:22:35;11.70;99.90
12885;DHT22;6510;51.362;7.370;2023-08-07T03:25:00;11.70;99.90
12885;DHT22;6510;51.362;7.370;2023-08-07T03:27:26;11.80;99.90
12885;DHT22;6510;51.362;7.370;2023-08-07T03:29:54;11.80;99.90
12885;DHT22;6510;51.362;7.370;2023-08-07T03:32:19;11.80;99.90
12885;DHT22;6510;51.362;7.370;2023-08-07T03:34:45;11.70;99.90
12885;DHT22;6510;51.362;7.370;2023-08-07T03:37:10;11.70;99.90
12885;DHT22;6510;51.362;7.370;2023-08-07T03:39:36;11.80;99.90
12885;DHT22;6510;51.362;7.370;2023-08-07T03:42:02;11.80;99.90
12885;DHT22;6510;51.362;7.370;2023-08-07T03:44:27;11.80;99.90
12885;DHT22;6510;51.362;7.370;2023-08-07T03:46:53;11.80;99.90
12885;DHT22;6510;51.362;7.370;2023-08-07T03:49:24;11.80;99.90
12885;DHT22;6510;51.362;7.370;2023-08-07T03:51:49;11.80;99.90
12885;DHT22;6510;51.362;7.370;2023-08-07T03:54:15;11.70;99.90
12885;DHT22;6510;51.362;7.370;2023-08-07T03:56:40;11.80;99.90
12885;DHT22;6510;51.362;7.370;2023-08-07T03:59:06;11.80;99.90
12885;DHT22;6510;51.362;7.370;2023-08-07T04:01:32;11.70;99.90
12885;DHT22;6510;51.362;7.370;2023-08-07T04:03:57;11.70;99.90
12885;DHT22;6510;51.362;7.370;2023-08-07T04:06:23;11.70;99.90
12885;DHT22;6510;51.362;7.370;2023-08-07T04:08:49;11.60;99.90
12885;DHT22;6510;51.362;7.370;2023-08-07T04:11:14;11.70;99.90
12885;DHT22;6510;51.362;7.370;2023-08-07T04:13:40;11.60;99.90
12885;DHT22;6510;51.362;7.370;2023-08-07T04:16:05;11.60;99.90
12885;DHT22;6510;51.362;7.370;2023-08-07T04:18:32;11.70;99.90
12885;DHT22;6510;51.362;7.370;2023-08-07T04:20:58;11.60;99.90
12885;DHT22;6510;51.362;7.370;2023-08-07T04:23:24;11.60;99.90
12885;DHT22;6510;51.362;7.370;2023-08-07T04:25:51;11.60;99.90
12885;DHT22;6510;51.362;7.370;2023-08-07T04:28:17;11.60;99.90
12885;DHT22;6510;51.362;7.370;2023-08-07T04:30:44;11.60;99.90
12885;DHT22;6510;51.362;7.370;2023-08-07T04:33:10;11.60;99.90
12885;DHT22;6510;51.362;7.370;2023-08-07T04:35:36;11.60;99.90
12885;DHT22;6510;51.362;7.370;2023-08-07T04:38:02;11.60;99.90
12885;DHT22;6510;51.362;7.370;2023-08-07T04:40:28;11.60;99.90
12885;DHT22;6510;51.362;7.370;2023-08-07T04:42:56;11.60;99.90
12885;DHT22;6510;51.362;7.370;2023-08-07T04:45:21;11.60;99.90
12885;DHT22;6510;51.362;7.370;2023-08-07T04:47:47;11.60;99.90
12885;DHT22;6510;51.362;7.370;2023-08-07T04:50:13;11.60;99.90
12885;DHT22;6510;51.362;7.370;2023-08-07T04:52:38;11.60;99.90
12885;DHT22;6510;51.362;7.370;2023-08-07T04:55:04;11.60;99.90
12885;DHT22;6510;51.362;7.370;2023-08-07T04:57:30;11.60;99.90
12885;DHT22;6510;51.362;7.370;2023-08-07T04:59:59;11.60;99.90
12885;DHT22;6510;51.362;7.370;2023-08-07T05:02:24;11.70;99.90
12885;DHT22;6510;51.362;7.370;2023-08-07T05:04:50;11.60;99.90
12885;DHT22;6510;51.362;7.370;2023-08-07T05:07:15;11.70;99.90
12885;DHT22;6510;51.362;7.370;2023-08-07T05:09:41;11.60;99.90
12885;DHT22;6510;51.362;7.370;2023-08-07T05:12:07;11.60;99.90
12885;DHT22;6510;51.362;7.370;2023-08-07T05:14:33;11.60;99.90
12885;DHT22;6510;51.362;7.370;2023-08-07T05:16:58;11.60;99.90
12885;DHT22;6510;51.362;7.370;2023-08-07T05:19:27;11.60;99.90
12885;DHT22;6510;51.362;7.370;2023-08-07T05:21:53;11.60;99.90
12885;DHT22;6510;51.362;7.370;2023-08-07T05:24:18;11.60;99.90
12885;DHT22;6510;51.362;7.370;2023-08-07T05:26:44;11.70;99.90
12885;DHT22;6510;51.362;7.370;2023-08-07T05:29:10;11.60;99.90
12885;DHT22;6510;51.362;7.370;2023-08-07T05:31:36;11.60;99.90
12885;DHT22;6510;51.362;7.370;2023-08-07T05:34:02;11.60;99.90
12885;DHT22;6510;51.362;7.370;2023-08-07T05:36:28;11.60;99.90
12885;DHT22;6510;51.362;7.370;2023-08-07T05:38:55;11.60;99.90
12885;DHT22;6510;51.362;7.370;2023-08-07T05:41:20;11.60;99.90
12885;DHT22;6510;51.362;7.370;2023-08-07T05:43:46;11.60;99.90
12885;DHT22;6510;51.362;7.370;2023-08-07T05:46:12;11.60;99.90
12885;DHT22;6510;51.362;7.370;2023-08-07T05:48:37;11.60;99.90
12885;DHT22;6510;51.362;7.370;2023-08-07T05:51:03;11.60;99.90
12885;DHT22;6510;51.362;7.370;2023-08-07T05:53:29;11.60;99.90
12885;DHT22;6510;51.362;7.370;2023-08-07T05:55:55;11.60;99.90
12885;DHT22;6510;51.362;7.370;2023-08-07T05:58:20;11.50;99.90
12885;DHT22;6510;51.362;7.370;2023-08-07T06:00:46;11.50;99.90
12885;DHT22;6510;51.362;7.370;2023-08-07T06:03:11;11.50;99.90
12885;DHT22;6510;51.362;7.370;2023-08-07T06:05:38;11.50;99.90
12885;DHT22;6510;51.362;7.370;2023-08-07T06:08:03;11.50;99.90
12885;DHT22;6510;51.362;7.370;2023-08-07T06:10:29;11.60;99.90
12885;DHT22;6510;51.362;7.370;2023-08-07T06:12:55;11.60;99.90
12885;DHT22;6510;51.362;7.370;2023-08-07T06:15:20;11.60;99.90
12885;DHT22;6510;51.362;7.370;2023-08-07T06:17:46;11.60;99.90
12885;DHT22;6510;51.362;7.370;2023-08-07T06:20:11;11.60;99.90
12885;DHT22;6510;51.362;7.370;2023-08-07T06:22:40;11.60;99.90
12885;DHT22;6510;51.362;7.370;2023-08-07T06:25:06;11.60;99.90
12885;DHT22;6510;51.362;7.370;2023-08-07T06:27:32;11.60;99.90
12885;DHT22;6510;51.362;7.370;2023-08-07T06:29:58;11.60;99.90
12885;DHT22;6510;51.362;7.370;2023-08-07T06:32:25;11.70;99.90
12885;DHT22;6510;51.362;7.370;2023-08-07T06:34:50;11.70;99.90
12885;DHT22;6510;51.362;7.370;2023-08-07T06:37:16;11.60;99.90
12885;DHT22;6510;51.362;7.370;2023-08-07T06:39:42;11.60;99.90
12885;DHT22;6510;51.362;7.370;2023-08-07T06:42:07;11.60;99.90
12885;DHT22;6510;51.362;7.370;2023-08-07T06:44:33;11.60;99.90
12885;DHT22;6510;51.362;7.370;2023-08-07T06:46:59;11.60;99.90
12885;DHT22;6510;51.362;7.370;2023-08-07T06:49:24;11.70;99.90
12885;DHT22;6510;51.362;7.370;2023-08-07T06:51:50;11.80;99.90
12885;DHT22;6510;51.362;7.370;2023-08-07T06:54:15;11.80;99.90
12885;DHT22;6510;51.362;7.370;2023-08-07T06:56:41;11.80;99.90
12885;DHT22;6510;51.362;7.370;2023-08-07T06:59:07;11.80;99.90
12885;DHT22;6510;51.362;7.370;2023-08-07T07:01:33;11.90;99.90
12885;DHT22;6510;51.362;7.370;2023-08-07T07:03:59;11.90;99.90
12885;DHT22;6510;51.362;7.370;2023-08-07T07:06:24;11.80;99.90
12885;DHT22;6510;51.362;7.370;2023-08-07T07:08:51;11.90;99.90
12885;DHT22;6510;51.362;7.370;2023-08-07T07:11:19;11.90;99.90
12885;DHT22;6510;51.362;7.370;2023-08-07T07:13:46;12.00;99.90
12885;DHT22;6510;51.362;7.370;2023-08-07T07:16:11;12.00;99.90
12885;DHT22;6510;51.362;7.370;2023-08-07T07:18:38;12.00;99.90
12885;DHT22;6510;51.362;7.370;2023-08-07T07:21:04;12.00;99.90
12885;DHT22;6510;51.362;7.370;2023-08-07T07:23:30;12.10;99.90
12885;DHT22;6510;51.362;7.370;2023-08-07T07:25:56;12.10;99.90
12885;DHT22;6510;51.362;7.370;2023-08-07T07:28:23;12.10;99.90
12885;DHT22;6510;51.362;7.370;2023-08-07T07:30:49;12.10;99.90
12885;DHT22;6510;51.362;7.370;2023-08-07T07:33:15;12.10;99.90
12885;DHT22;6510;51.362;7.370;2023-08-07T07:35:41;12.10;99.90
12885;DHT22;6510;51.362;7.370;2023-08-07T07:38:07;12.10;99.90
12885;DHT22;6510;51.362;7.370;2023-08-07T07:40:34;12.10;99.90
12885;DHT22;6510;51.362;7.370;2023-08-07T07:42:59;12.10;99.90
12885;DHT22;6510;51.362;7.370;2023-08-07T07:45:25;12.10;99.90
12885;DHT22;6510;51.362;7.370;2023-08-07T07:47:51;12.10;99.90
12885;DHT22;6510;51.362;7.370;2023-08-07T07:50:16;12.10;99.90
12885;DHT22;6510;51.362;7.370;2023-08-07T07:52:42;12.10;99.90
12885;DHT22;6510;51.362;7.370;2023-08-07T07:55:09;12.10;99.90
12885;DHT22;6510;51.362;7.370;2023-08-07T07:57:35;12.20;99.90
12885;DHT22;6510;51.362;7.370;2023-08-07T08:00:01;12.20;99.90
12885;DHT22;6510;51.362;7.370;2023-08-07T08:02:28;12.30;99.90
12885;DHT22;6510;51.362;7.370;2023-08-07T08:04:53;12.30;99.90
12885;DHT22;6510;51.362;7.370;2023-08-07T08:07:19;12.30;99.90
12885;DHT22;6510;51.362;7.370;2023-08-07T08:09:47;12.30;99.90
12885;DHT22;6510;51.362;7.370;2023-08-07T08:12:12;12.30;99.90
12885;DHT22;6510;51.362;7.370;2023-08-07T08:14:38;12.30;99.90
12885;DHT22;6510;51.362;7.370;2023-08-07T08:17:04;12.30;99.90
12885;DHT22;6510;51.362;7.370;2023-08-07T08:19:29;12.30;99.90
12885;DHT22;6510;51.362;7.370;2023-08-07T08:21:55;12.30;99.90
12885;DHT22;6510;51.362;7.370;2023-08-07T08:26:13;12.40;99.90
12885;DHT22;6510;51.362;7.370;2023-08-07T08:28:38;12.40;99.90
12885;DHT22;6510;51.362;7.370;2023-08-07T08:31:05;12.40;99.90
12885;DHT22;6510;51.362;7.370;2023-08-07T08:33:31;12.40;99.90
12885;DHT22;6510;51.362;7.370;2023-08-07T08:35:57;12.40;99.90
12885;DHT22;6510;51.362;7.370;2023-08-07T08:38:22;12.40;99.90
12885;DHT22;6510;51.362;7.370;2023-08-07T08:40:51;12.40;99.90
12885;DHT22;6510;51.362;7.370;2023-08-07T08:43:18;12.40;99.90
12885;DHT22;6510;51.362;7.370;2023-08-07T08:45:44;12.50;99.90
12885;DHT22;6510;51.362;7.370;2023-08-07T08:48:13;12.40;99.90
12885;DHT22;6510;51.362;7.370;2023-08-07T08:50:42;12.40;99.90
12885;DHT22;6510;51.362;7.370;2023-08-07T08:53:09;12.50;99.90
12885;DHT22;6510;51.362;7.370;2023-08-07T08:55:35;12.70;99.90
12885;DHT22;6510;51.362;7.370;2023-08-07T08:58:01;12.60;99.90
12885;DHT22;6510;51.362;7.370;2023-08-07T09:00:29;12.60;99.90
12885;DHT22;6510;51.362;7.370;2023-08-07T09:02:56;12.70;99.90
12885;DHT22;6510;51.362;7.370;2023-08-07T09:05:22;12.90;99.90
12885;DHT22;6510;51.362;7.370;2023-08-07T09:07:49;12.90;99.90
12885;DHT22;6510;51.362;7.370;2023-08-07T09:10:15;12.90;99.90
12885;DHT22;6510;51.362;7.370;2023-08-07T09:12:49;13.00;99.90
12885;DHT22;6510;51.362;7.370;2023-08-07T09:15:17;12.90;99.90
12885;DHT22;6510;51.362;7.370;2023-08-07T09:17:45;13.00;99.90
12885;DHT22;6510;51.362;7.370;2023-08-07T09:20:11;13.20;99.90
12885;DHT22;6510;51.362;7.370;2023-08-07T09:22:39;13.40;99.90
12885;DHT22;6510;51.362;7.370;2023-08-07T09:25:05;13.50;99.90
12885;DHT22;6510;51.362;7.370;2023-08-07T09:27:31;13.70;99.90
12885;DHT22;6510;51.362;7.370;2023-08-07T09:29:57;14.40;99.90
12885;DHT22;6510;51.362;7.370;2023-08-07T09:32:23;14.20;99.90
12885;DHT22;6510;51.362;7.370;2023-08-07T09:34:50;14.10;99.90
12885;DHT22;6510;51.362;7.370;2023-08-07T09:37:17;13.80;99.90
12885;DHT22;6510;51.362;7.370;2023-08-07T09:39:42;13.80;99.90
12885;DHT22;6510;51.362;7.370;2023-08-07T09:42:15;13.80;99.90
12885;DHT22;6510;51.362;7.370;2023-08-07T09:44:42;14.40;99.90
12885;DHT22;6510;51.362;7.370;2023-08-07T09:47:15;14.50;99.90
12885;DHT22;6510;51.362;7.370;2023-08-07T09:49:41;14.80;99.90
12885;DHT22;6510;51.362;7.370;2023-08-07T09:52:09;15.60;99.90
12885;DHT22;6510;51.362;7.370;2023-08-07T09:54:36;16.10;99.90
12885;DHT22;6510;51.362;7.370;2023-08-07T09:57:02;15.50;99.90
12885;DHT22;6510;51.362;7.370;2023-08-07T09:59:28;14.80;99.90
12885;DHT22;6510;51.362;7.370;2023-08-07T10:01:55;15.10;99.90
12885;DHT22;6510;51.362;7.370;2023-08-07T10:04:21;16.50;99.90
12885;DHT22;6510;51.362;7.370;2023-08-07T10:06:48;16.10;99.90
12885;DHT22;6510;51.362;7.370;2023-08-07T10:09:14;15.60;99.90
12885;DHT22;6510;51.362;7.370;2023-08-07T10:11:41;15.00;99.90
12885;DHT22;6510;51.362;7.370;2023-08-07T10:14:08;14.40;99.90
12885;DHT22;6510;51.362;7.370;2023-08-07T10:16:34;13.90;99.90
12885;DHT22;6510;51.362;7.370;2023-08-07T10:19:08;13.60;99.90
12885;DHT22;6510;51.362;7.370;2023-08-07T10:21:39;13.70;99.90
12885;DHT22;6510;51.362;7.370;2023-08-07T10:24:07;13.60;99.90
12885;DHT22;6510;51.362;7.370;2023-08-07T10:26:34;13.80;99.90
12885;DHT22;6510;51.362;7.370;2023-08-07T10:29:06;15.10;99.90
12885;DHT22;6510;51.362;7.370;2023-08-07T10:31:33;15.60;99.90
12885;DHT22;6510;51.362;7.370;2023-08-07T10:34:01;15.60;99.90
12885;DHT22;6510;51.362;7.370;2023-08-07T10:36:33;16.00;99.90
12885;DHT22;6510;51.362;7.370;2023-08-07T10:39:12;16.40;99.90
12885;DHT22;6510;51.362;7.370;2023-08-07T10:41:39;16.80;99.90
12885;DHT22;6510;51.362;7.370;2023-08-07T10:44:05;17.00;99.90
12885;DHT22;6510;51.362;7.370;2023-08-07T10:46:51;16.50;99.90
12885;DHT22;6510;51.362;7.370;2023-08-07T10:49:46;16.60;99.90
12885;DHT22;6510;51.362;7.370;2023-08-07T10:52:13;17.80;99.90
12885;DHT22;6510;51.362;7.370;2023-08-07T10:54:49;18.00;99.90
12885;DHT22;6510;51.362;7.370;2023-08-07T10:57:17;16.90;99.90
12885;DHT22;6510;51.362;7.370;2023-08-07T11:02:26;16.00;99.90
12885;DHT22;6510;51.362;7.370;2023-08-07T11:04:53;16.20;99.90
12885;DHT22;6510;51.362;7.370;2023-08-07T11:07:25;18.20;99.90
12885;DHT22;6510;51.362;7.370;2023-08-07T11:09:52;18.50;99.90
12885;DHT22;6510;51.362;7.370;2023-08-07T11:12:18;18.30;99.90
12885;DHT22;6510;51.362;7.370;2023-08-07T11:14:44;16.90;99.90
12885;DHT22;6510;51.362;7.370;2023-08-07T11:17:10;15.60;99.90
12885;DHT22;6510;51.362;7.370;2023-08-07T11:19:35;15.10;99.90
12885;DHT22;6510;51.362;7.370;2023-08-07T11:22:01;15.20;99.90
12885;DHT22;6510;51.362;7.370;2023-08-07T11:24:27;15.40;99.90
12885;DHT22;6510;51.362;7.370;2023-08-07T11:26:53;15.70;99.90
12885;DHT22;6510;51.362;7.370;2023-08-07T11:29:22;15.60;99.90
12885;DHT22;6510;51.362;7.370;2023-08-07T11:31:50;15.50;99.90
12885;DHT22;6510;51.362;7.370;2023-08-07T11:34:17;16.40;99.90
12885;DHT22;6510;51.362;7.370;2023-08-07T11:36:44;17.60;99.90
12885;DHT22;6510;51.362;7.370;2023-08-07T11:39:10;17.40;99.90
12885;DHT22;6510;51.362;7.370;2023-08-07T11:41:36;17.20;99.90
12885;DHT22;6510;51.362;7.370;2023-08-07T11:44:02;18.80;99.90
12885;DHT22;6510;51.362;7.370;2023-08-07T11:46:28;21.00;99.90
12885;DHT22;6510;51.362;7.370;2023-08-07T11:48:56;22.90;99.90
12885;DHT22;6510;51.362;7.370;2023-08-07T11:51:22;24.50;99.90
12885;DHT22;6510;51.362;7.370;2023-08-07T11:53:48;23.80;99.90
12885;DHT22;6510;51.362;7.370;2023-08-07T11:56:14;24.10;99.90
12885;DHT22;6510;51.362;7.370;2023-08-07T11:58:42;24.30;99.90
12885;DHT22;6510;51.362;7.370;2023-08-07T12:01:12;25.20;99.90
12885;DHT22;6510;51.362;7.370;2023-08-07T12:03:41;25.00;99.90
12885;DHT22;6510;51.362;7.370;2023-08-07T12:06:08;24.10;99.90
12885;DHT22;6510;51.362;7.370;2023-08-07T12:08:36;21.80;99.90
12885;DHT22;6510;51.362;7.370;2023-08-07T12:11:03;19.90;99.90
12885;DHT22;6510;51.362;7.370;2023-08-07T12:13:30;18.60;99.90
12885;DHT22;6510;51.362;7.370;2023-08-07T12:15:57;17.70;99.90
12885;DHT22;6510;51.362;7.370;2023-08-07T12:18:26;17.00;99.90
12885;DHT22;6510;51.362;7.370;2023-08-07T12:20:53;17.00;99.90
12885;DHT22;6510;51.362;7.370;2023-08-07T12:23:21;17.70;99.90
12885;DHT22;6510;51.362;7.370;2023-08-07T12:25:47;19.40;99.90
12885;DHT22;6510;51.362;7.370;2023-08-07T12:28:14;20.20;99.90
12885;DHT22;6510;51.362;7.370;2023-08-07T12:30:42;22.50;99.90
12885;DHT22;6510;51.362;7.370;2023-08-07T12:33:10;24.30;99.90
12885;DHT22;6510;51.362;7.370;2023-08-07T12:35:35;25.90;99.90
12885;DHT22;6510;51.362;7.370;2023-08-07T12:38:01;26.60;99.90
12885;DHT22;6510;51.362;7.370;2023-08-07T12:40:30;26.00;99.90
12885;DHT22;6510;51.362;7.370;2023-08-07T12:42:55;25.10;99.90
12885;DHT22;6510;51.362;7.370;2023-08-07T12:45:21;25.20;99.90
12885;DHT22;6510;51.362;7.370;2023-08-07T12:47:47;26.30;99.90
12885;DHT22;6510;51.362;7.370;2023-08-07T12:50:12;26.00;99.90
12885;DHT22;6510;51.362;7.370;2023-08-07T12:52:38;25.90;99.90
12885;DHT22;6510;51.362;7.370;2023-08-07T12:55:04;24.70;99.90
12885;DHT22;6510;51.362;7.370;2023-08-07T12:57:31;24.60;99.90
12885;DHT22;6510;51.362;7.370;2023-08-07T12:59:57;24.10;99.90
12885;DHT22;6510;51.362;7.370;2023-08-07T13:02:22;22.30;99.90
12885;DHT22;6510;51.362;7.370;2023-08-07T13:04:48;20.10;99.90
12885;DHT22;6510;51.362;7.370;2023-08-07T13:07:13;19.50;99.90
12885;DHT22;6510;51.362;7.370;2023-08-07T13:09:39;19.30;99.90
12885;DHT22;6510;51.362;7.370;2023-08-07T13:12:05;19.00;99.90
12885;DHT22;6510;51.362;7.370;2023-08-07T13:14:31;18.70;99.90
12885;DHT22;6510;51.362;7.370;2023-08-07T13:16:56;19.20;99.90
12885;DHT22;6510;51.362;7.370;2023-08-07T13:19:22;23.00;99.90
12885;DHT22;6510;51.362;7.370;2023-08-07T13:21:48;25.10;99.90
12885;DHT22;6510;51.362;7.370;2023-08-07T13:24:13;24.70;99.90
12885;DHT22;6510;51.362;7.370;2023-08-07T13:26:39;21.60;99.90
12885;DHT22;6510;51.362;7.370;2023-08-07T13:29:10;20.10;99.90
12885;DHT22;6510;51.362;7.370;2023-08-07T13:31:36;20.30;99.90
12885;DHT22;6510;51.362;7.370;2023-08-07T13:34:02;20.10;99.90
12885;DHT22;6510;51.362;7.370;2023-08-07T13:36:33;20.20;99.90
12885;DHT22;6510;51.362;7.370;2023-08-07T13:38:59;20.30;99.90
12885;DHT22;6510;51.362;7.370;2023-08-07T13:41:26;20.20;99.90
12885;DHT22;6510;51.362;7.370;2023-08-07T13:43:51;20.90;99.90
12885;DHT22;6510;51.362;7.370;2023-08-07T13:46:17;22.80;99.90
12885;DHT22;6510;51.362;7.370;2023-08-07T13:48:44;24.80;99.90
12885;DHT22;6510;51.362;7.370;2023-08-07T13:51:10;25.80;99.90
12885;DHT22;6510;51.362;7.370;2023-08-07T13:53:36;25.90;99.90
12885;DHT22;6510;51.362;7.370;2023-08-07T13:56:01;26.50;99.90
12885;DHT22;6510;51.362;7.370;2023-08-07T13:58:27;26.50;99.90
12885;DHT22;6510;51.362;7.370;2023-08-07T14:00:53;26.50;99.90
12885;DHT22;6510;51.362;7.370;2023-08-07T14:03:19;24.90;99.90
12885;DHT22;6510;51.362;7.370;2023-08-07T14:05:45;24.90;99.90
12885;DHT22;6510;51.362;7.370;2023-08-07T14:08:11;24.80;99.90
12885;DHT22;6510;51.362;7.370;2023-08-07T14:10:37;24.20;99.90
12885;DHT22;6510;51.362;7.370;2023-08-07T14:13:04;24.20;99.90
12885;DHT22;6510;51.362;7.370;2023-08-07T14:15:31;23.40;99.90
12885;DHT22;6510;51.362;7.370;2023-08-07T14:17:56;21.60;99.90
12885;DHT22;6510;51.362;7.370;2023-08-07T14:20:23;20.90;99.90
12885;DHT22;6510;51.362;7.370;2023-08-07T14:22:50;20.20;99.90
12885;DHT22;6510;51.362;7.370;2023-08-07T14:25:16;20.50;99.90
12885;DHT22;6510;51.362;7.370;2023-08-07T14:27:41;19.80;99.90
12885;DHT22;6510;51.362;7.370;2023-08-07T14:30:07;19.60;99.90
12885;DHT22;6510;51.362;7.370;2023-08-07T14:32:33;19.50;99.90
12885;DHT22;6510;51.362;7.370;2023-08-07T14:35:02;19.60;99.90
12885;DHT22;6510;51.362;7.370;2023-08-07T14:37:28;19.70;99.90
12885;DHT22;6510;51.362;7.370;2023-08-07T14:39:53;19.70;99.90
12885;DHT22;6510;51.362;7.370;2023-08-07T14:42:19;19.60;99.90
12885;DHT22;6510;51.362;7.370;2023-08-07T14:44:44;19.30;99.90
12885;DHT22;6510;51.362;7.370;2023-08-07T14:47:10;19.00;99.90
12885;DHT22;6510;51.362;7.370;2023-08-07T14:49:36;19.30;99.90
12885;DHT22;6510;51.362;7.370;2023-08-07T14:52:01;19.70;99.90
12885;DHT22;6510;51.362;7.370;2023-08-07T14:54:27;19.30;99.90
12885;DHT22;6510;51.362;7.370;2023-08-07T14:56:53;19.00;99.90
12885;DHT22;6510;51.362;7.370;2023-08-07T14:59:19;18.60;99.90
12885;DHT22;6510;51.362;7.370;2023-08-07T15:01:44;18.80;99.90
12885;DHT22;6510;51.362;7.370;2023-08-07T15:04:10;19.00;99.90
12885;DHT22;6510;51.362;7.370;2023-08-07T15:06:36;19.20;99.90
12885;DHT22;6510;51.362;7.370;2023-08-07T15:09:02;19.20;99.90
12885;DHT22;6510;51.362;7.370;2023-08-07T15:11:27;19.10;99.90
12885;DHT22;6510;51.362;7.370;2023-08-07T15:13:53;19.30;99.90
12885;DHT22;6510;51.362;7.370;2023-08-07T15:16:18;19.00;99.90
12885;DHT22;6510;51.362;7.370;2023-08-07T15:18:44;18.80;99.90
12885;DHT22;6510;51.362;7.370;2023-08-07T15:21:10;18.60;99.90
12885;DHT22;6510;51.362;7.370;2023-08-07T15:23:36;18.80;99.90
12885;DHT22;6510;51.362;7.370;2023-08-07T15:26:02;19.10;99.90
12885;DHT22;6510;51.362;7.370;2023-08-07T15:28:27;19.40;99.90
12885;DHT22;6510;51.362;7.370;2023-08-07T15:30:53;19.30;99.90
12885;DHT22;6510;51.362;7.370;2023-08-07T15:33:19;19.20;99.90
12885;DHT22;6510;51.362;7.370;2023-08-07T15:35:45;19.10;99.90
12885;DHT22;6510;51.362;7.370;2023-08-07T15:38:10;19.00;99.90
12885;DHT22;6510;51.362;7.370;2023-08-07T15:40:38;19.20;99.90
12885;DHT22;6510;51.362;7.370;2023-08-07T15:43:04;19.10;99.90
12885;DHT22;6510;51.362;7.370;2023-08-07T15:45:29;18.80;99.90
12885;DHT22;6510;51.362;7.370;2023-08-07T15:47:55;18.60;99.90
12885;DHT22;6510;51.362;7.370;2023-08-07T15:50:21;18.70;99.90
12885;DHT22;6510;51.362;7.370;2023-08-07T15:52:47;18.70;99.90
12885;DHT22;6510;51.362;7.370;2023-08-07T15:55:13;18.60;99.90
12885;DHT22;6510;51.362;7.370;2023-08-07T15:57:39;18.40;99.90